Terminal Aerodrome Forecast
Issued by NWS

Current Version | Previous Version | Text Only | Print | Product List | Glossary On
Versions: 1 2 3 4 5 6 7 8 9 10 11 12 13 14 15 16 17 18 19 20 21 22 23 24 25 26
000 FTUS41 KGYX 251123 TAFPSM TAF KPSM 251123Z 2512/2612 15008KT 1/4SM FG VV001 FM251400 17006KT P6SM -SHRA BKN025 FM260500 25010KT 5SM SHRA BR OVC025 FM260900 30012G20KT P6SM SCT040=

USA.gov is the U.S. government's official web portal to all federal, state and local government web resources and services.